createdAt,value
2023-12-17T00:02:05.835Z,10.98
2023-12-17T00:07:00.531Z,13.05
2023-12-17T00:09:27.547Z,12.32
2023-12-17T00:11:54.726Z,11.23
2023-12-17T00:14:21.697Z,13.55
2023-12-17T00:16:48.887Z,11.20
2023-12-17T00:19:16.135Z,14.75
2023-12-17T00:21:43.174Z,12.68
2023-12-17T00:24:10.058Z,13.02
2023-12-17T00:26:37.028Z,13.10
2023-12-17T00:29:03.914Z,16.23
2023-12-17T00:31:30.714Z,15.25
2023-12-17T00:33:57.991Z,12.85
2023-12-17T00:36:25.083Z,12.98
2023-12-17T00:41:22.148Z,13.52
2023-12-17T00:43:49.381Z,13.93
2023-12-17T00:46:16.378Z,15.63
2023-12-17T00:48:43.784Z,14.27
2023-12-17T00:51:12.816Z,15.75
2023-12-17T00:53:39.886Z,13.27
2023-12-17T00:56:07.231Z,14.55
2023-12-17T00:58:34.249Z,14.73
2023-12-17T01:03:30.188Z,14.05
2023-12-17T01:05:57.497Z,14.88
2023-12-17T01:08:24.728Z,14.13
2023-12-17T01:10:51.493Z,13.93
2023-12-17T01:13:18.423Z,14.25
2023-12-17T01:15:45.292Z,16.63
2023-12-17T01:20:39.329Z,12.68
2023-12-17T01:23:06.211Z,13.85
2023-12-17T01:25:33.159Z,12.75
2023-12-17T01:27:59.919Z,14.23
2023-12-17T01:30:26.891Z,14.90
2023-12-17T01:32:55.309Z,11.82
2023-12-17T01:35:22.154Z,12.63
2023-12-17T01:37:48.916Z,13.55
2023-12-17T01:40:15.772Z,13.52
2023-12-17T01:42:42.544Z,16.45
2023-12-17T01:45:10.204Z,12.75
2023-12-17T01:47:37.291Z,12.63
2023-12-17T01:50:04.988Z,13.55
2023-12-17T01:52:31.855Z,15.85
2023-12-17T01:54:58.849Z,15.15
2023-12-17T01:57:25.766Z,14.00
2023-12-17T01:59:52.800Z,14.00
2023-12-17T02:04:47.284Z,16.27
2023-12-17T02:07:14.251Z,15.80
2023-12-17T02:09:42.116Z,14.85
2023-12-17T02:12:09.137Z,14.98
2023-12-17T02:14:36.002Z,16.17
2023-12-17T02:17:02.768Z,13.95
2023-12-17T02:19:29.754Z,14.73
2023-12-17T02:24:23.475Z,14.77
2023-12-17T02:26:50.317Z,12.48
2023-12-17T02:29:17.659Z,14.35
2023-12-17T02:31:44.506Z,15.38
2023-12-17T02:34:11.429Z,15.93
2023-12-17T02:36:40.016Z,13.52
2023-12-17T02:39:09.715Z,13.38
2023-12-17T02:41:36.657Z,14.95
2023-12-17T02:44:03.552Z,12.13
2023-12-17T02:46:30.422Z,15.13
2023-12-17T02:48:57.423Z,15.80
2023-12-17T02:51:24.319Z,12.43
2023-12-17T02:53:51.261Z,13.23
2023-12-17T02:56:18.272Z,16.83
2023-12-17T03:01:11.876Z,12.13
2023-12-17T03:03:39.018Z,14.88
2023-12-17T03:06:06.181Z,13.07
2023-12-17T03:10:59.866Z,13.13
2023-12-17T03:13:27.085Z,15.45
2023-12-17T03:15:53.938Z,15.52
2023-12-17T03:18:21.050Z,13.93
2023-12-17T03:20:48.126Z,14.60
2023-12-17T03:23:15.135Z,14.60
2023-12-17T03:28:08.747Z,15.35
2023-12-17T03:30:35.889Z,17.00
2023-12-17T03:35:29.730Z,16.23
2023-12-17T03:37:56.601Z,14.23
2023-12-17T03:40:23.563Z,14.38
2023-12-17T03:42:50.456Z,15.85
2023-12-17T03:45:17.316Z,15.20
2023-12-17T03:47:48.838Z,14.13
2023-12-17T03:50:20.287Z,15.93
2023-12-17T03:52:48.679Z,14.18
2023-12-17T03:55:16.081Z,15.15
2023-12-17T03:57:43.016Z,14.80
2023-12-17T04:00:13.459Z,12.70
2023-12-17T04:02:40.439Z,12.68
2023-12-17T04:05:08.784Z,14.43
2023-12-17T04:07:36.082Z,14.73
2023-12-17T04:10:04.123Z,16.48
2023-12-17T04:12:31.067Z,14.88
2023-12-17T04:14:58.099Z,15.52
2023-12-17T04:19:51.741Z,16.25
2023-12-17T04:22:18.609Z,16.45
2023-12-17T04:24:45.448Z,16.25
2023-12-17T04:27:12.424Z,16.02
2023-12-17T04:32:06.253Z,14.52
2023-12-17T04:37:01.043Z,15.10
2023-12-17T04:39:28.231Z,16.25
2023-12-17T04:41:55.267Z,15.90
2023-12-17T04:46:49.107Z,16.17
2023-12-17T04:49:16.070Z,15.80
2023-12-17T04:54:10.097Z,15.05
2023-12-17T04:56:36.930Z,14.23
2023-12-17T04:59:04.121Z,15.57
2023-12-17T05:01:31.006Z,13.25
2023-12-17T05:03:57.902Z,15.55
2023-12-17T05:08:52.038Z,16.95
2023-12-17T05:11:18.947Z,16.98
2023-12-17T05:13:45.724Z,18.73
2023-12-17T05:16:12.633Z,17.20
2023-12-17T05:18:39.487Z,13.25
2023-12-17T05:21:07.685Z,13.70
2023-12-17T05:23:34.543Z,14.20
2023-12-17T05:26:01.408Z,15.02
2023-12-17T05:28:29.109Z,13.23
2023-12-17T05:30:56.132Z,15.32
2023-12-17T05:33:23.115Z,15.40
2023-12-17T05:38:17.372Z,15.68
2023-12-17T05:40:44.219Z,14.35
2023-12-17T05:43:11.111Z,14.15
2023-12-17T05:45:44.753Z,14.30
2023-12-17T05:48:18.021Z,17.55
2023-12-17T05:53:15.104Z,14.98
2023-12-17T05:55:42.358Z,15.45
2023-12-17T05:58:09.147Z,14.93
2023-12-17T06:00:35.962Z,15.73
2023-12-17T06:03:02.982Z,14.45
2023-12-17T06:07:56.704Z,13.52
2023-12-17T06:10:23.605Z,14.85
2023-12-17T06:12:50.457Z,17.38
2023-12-17T06:15:17.846Z,15.68
2023-12-17T06:17:45.233Z,16.08
2023-12-17T06:20:12.587Z,15.02
2023-12-17T06:22:39.450Z,16.55
2023-12-17T06:25:06.536Z,16.58
2023-12-17T06:27:35.885Z,15.60
2023-12-17T06:30:02.827Z,15.75
2023-12-17T06:32:29.692Z,16.60
2023-12-17T06:34:56.504Z,15.65
2023-12-17T06:37:23.344Z,15.82
2023-12-17T06:39:51.174Z,15.07
2023-12-17T06:42:18.037Z,16.33
2023-12-17T06:44:45.094Z,14.82
2023-12-17T06:49:52.988Z,15.35
2023-12-17T06:52:19.725Z,17.40
2023-12-17T06:54:46.768Z,17.42
2023-12-17T06:59:40.495Z,17.40
2023-12-17T07:02:07.331Z,16.73
2023-12-17T07:04:34.209Z,19.90
2023-12-17T07:07:01.090Z,18.60
2023-12-17T07:09:28.003Z,17.65
2023-12-17T07:11:54.875Z,16.40
2023-12-17T07:14:21.829Z,16.63
2023-12-17T07:16:49.127Z,19.45
2023-12-17T07:19:16.113Z,19.77
2023-12-17T07:24:09.909Z,17.13
2023-12-17T07:26:36.909Z,19.35
2023-12-17T07:29:03.706Z,17.33
2023-12-17T07:31:30.603Z,12.88
2023-12-17T07:33:57.594Z,15.95
2023-12-17T07:38:51.207Z,13.48
2023-12-17T07:41:18.017Z,14.07
2023-12-17T07:43:44.870Z,13.32
2023-12-17T07:46:12.121Z,14.15
2023-12-17T07:48:39.108Z,13.43
2023-12-17T07:51:06.510Z,13.30
2023-12-17T07:53:33.526Z,13.02
2023-12-17T07:56:01.120Z,11.68
2023-12-17T07:58:29.658Z,10.13
2023-12-17T08:00:56.495Z,12.27
2023-12-17T08:03:25.079Z,10.18
2023-12-17T08:05:54.155Z,11.35
2023-12-17T08:08:21.240Z,11.70
2023-12-17T08:10:48.231Z,10.07
2023-12-17T08:15:45.643Z,12.30
2023-12-17T08:20:39.353Z,12.20
2023-12-17T08:23:06.390Z,9.18
2023-12-17T08:30:28.700Z,8.00
2023-12-17T08:35:22.588Z,10.93
2023-12-17T08:37:49.703Z,12.32
2023-12-17T08:40:16.681Z,11.45
2023-12-17T08:45:13.290Z,14.05
2023-12-17T08:47:40.502Z,18.00
2023-12-17T08:50:08.359Z,16.52
2023-12-17T08:52:36.940Z,16.48
2023-12-17T08:55:04.354Z,16.15
2023-12-17T08:57:31.301Z,16.20
2023-12-17T08:59:58.316Z,17.13
2023-12-17T09:04:53.893Z,14.50
2023-12-17T09:07:20.943Z,17.13
2023-12-17T09:12:14.723Z,17.58
2023-12-17T09:14:42.438Z,20.08
2023-12-17T09:17:09.976Z,19.15
2023-12-17T09:19:37.091Z,18.70
2023-12-17T09:22:04.365Z,15.80
2023-12-17T09:24:31.444Z,14.88
2023-12-17T09:26:58.884Z,16.52
2023-12-17T09:29:25.721Z,20.45
2023-12-17T09:31:52.504Z,20.42
2023-12-17T09:34:19.384Z,18.85
2023-12-17T09:39:13.343Z,19.33
2023-12-17T09:41:42.907Z,19.73
2023-12-17T09:44:09.711Z,22.48
2023-12-17T09:46:37.090Z,27.20
2023-12-17T09:49:04.081Z,26.20
2023-12-17T09:51:37.290Z,26.63
2023-12-17T09:54:06.297Z,27.38
2023-12-17T09:56:33.700Z,29.30
2023-12-17T09:59:00.598Z,31.17
2023-12-17T10:01:28.874Z,34.53
2023-12-17T10:03:57.978Z,29.70
2023-12-17T10:06:24.871Z,31.65
2023-12-17T10:08:51.909Z,31.30
2023-12-17T10:11:19.803Z,29.80
2023-12-17T10:13:46.647Z,28.50
2023-12-17T10:16:13.546Z,26.52
2023-12-17T10:18:40.437Z,36.53
2023-12-17T10:21:09.194Z,36.53
2023-12-17T10:23:49.667Z,30.92
2023-12-17T10:26:17.299Z,31.77
2023-12-17T10:28:48.400Z,30.58
2023-12-17T10:31:17.824Z,29.10
2023-12-17T10:34:00.021Z,30.27
2023-12-17T10:36:27.104Z,35.30
2023-12-17T10:41:23.968Z,31.92
2023-12-17T10:43:52.566Z,33.08
2023-12-17T10:46:20.584Z,29.02
2023-12-17T10:48:48.984Z,31.70
2023-12-17T10:51:19.477Z,31.42
2023-12-17T10:53:46.519Z,31.60
2023-12-17T10:58:41.905Z,30.40
2023-12-17T11:01:10.200Z,31.02
2023-12-17T11:03:37.374Z,30.98
2023-12-17T11:06:05.949Z,30.45
2023-12-17T11:08:33.489Z,28.45
2023-12-17T11:11:00.853Z,28.52
2023-12-17T11:13:28.591Z,27.67
2023-12-17T11:15:56.015Z,26.33
2023-12-17T11:18:24.984Z,24.25
2023-12-17T11:20:54.090Z,25.38
2023-12-17T11:23:21.708Z,26.38
2023-12-17T11:25:48.791Z,25.42
2023-12-17T11:28:28.272Z,23.88
2023-12-17T11:30:56.741Z,26.65
2023-12-17T11:33:26.223Z,28.52
2023-12-17T11:35:53.224Z,29.20
2023-12-17T11:38:21.648Z,27.20
2023-12-17T11:40:48.618Z,29.05
2023-12-17T11:45:46.152Z,27.67
2023-12-17T11:48:15.880Z,25.23
2023-12-17T11:50:44.306Z,29.63
2023-12-17T11:53:15.420Z,30.40
2023-12-17T11:56:04.747Z,25.55
2023-12-17T11:58:31.582Z,22.48
2023-12-17T12:01:13.256Z,21.42
2023-12-17T12:03:42.105Z,20.58
2023-12-17T12:06:12.317Z,23.67
2023-12-17T12:08:47.424Z,22.35
2023-12-17T12:11:16.883Z,21.33
2023-12-17T12:13:46.453Z,22.90
2023-12-17T12:16:14.098Z,20.75
2023-12-17T12:18:41.338Z,21.55
2023-12-17T12:21:19.427Z,26.83
2023-12-17T12:23:51.379Z,22.42
2023-12-17T12:26:19.246Z,22.33
2023-12-17T12:28:51.648Z,22.42
2023-12-17T12:31:18.666Z,23.83
2023-12-17T12:36:19.770Z,23.65
2023-12-17T12:38:46.660Z,24.63
2023-12-17T12:41:13.566Z,24.83
2023-12-17T12:43:41.219Z,21.17
2023-12-17T12:46:08.755Z,24.23
2023-12-17T12:48:37.908Z,20.90
2023-12-17T12:51:05.510Z,22.27
2023-12-17T12:53:32.470Z,22.10
2023-12-17T12:55:59.458Z,20.38
2023-12-17T13:00:53.556Z,19.88
2023-12-17T13:03:21.543Z,19.45
2023-12-17T13:05:49.399Z,19.45
2023-12-17T13:10:42.973Z,17.73
2023-12-17T13:13:10.333Z,18.65
2023-12-17T13:15:37.238Z,21.13
2023-12-17T13:20:31.843Z,20.00
2023-12-17T13:22:59.021Z,18.33
2023-12-17T13:25:25.881Z,19.00
2023-12-17T13:27:52.939Z,18.60
2023-12-17T13:32:47.707Z,19.20
2023-12-17T13:35:14.808Z,18.58
2023-12-17T13:37:43.877Z,20.45
2023-12-17T13:40:14.056Z,20.08
2023-12-17T13:42:41.438Z,16.40
2023-12-17T13:45:09.295Z,16.92
2023-12-17T13:47:36.569Z,17.85
2023-12-17T13:50:03.939Z,17.85
2023-12-17T13:52:31.395Z,17.23
2023-12-17T13:54:58.207Z,15.95
2023-12-17T13:57:25.139Z,17.38
2023-12-17T14:02:21.748Z,12.93
2023-12-17T14:04:48.539Z,12.30
2023-12-17T14:07:15.349Z,12.77
2023-12-17T14:09:42.219Z,12.10
2023-12-17T14:12:09.210Z,12.00
2023-12-17T14:17:03.280Z,14.98
2023-12-17T14:19:35.927Z,11.48
2023-12-17T14:22:04.846Z,12.35
2023-12-17T14:24:32.189Z,14.95
2023-12-17T14:26:59.176Z,16.90
2023-12-17T14:29:26.033Z,16.77
2023-12-17T14:31:54.736Z,12.85
2023-12-17T14:34:21.827Z,12.15
2023-12-17T14:36:48.749Z,13.63
2023-12-17T14:39:15.664Z,11.45
2023-12-17T14:44:10.034Z,13.30
2023-12-17T14:46:36.930Z,12.63
2023-12-17T14:49:04.018Z,11.35
2023-12-17T14:51:32.573Z,11.90
2023-12-17T14:54:00.736Z,10.95
2023-12-17T14:56:27.651Z,12.52
2023-12-17T14:58:58.036Z,13.88
2023-12-17T15:01:31.799Z,12.45
2023-12-17T15:04:02.284Z,22.80
2023-12-17T15:08:57.024Z,13.45
2023-12-17T15:11:24.004Z,12.40
2023-12-17T15:13:50.984Z,12.75
2023-12-17T15:16:17.781Z,13.02
2023-12-17T15:18:45.098Z,13.40
2023-12-17T15:21:16.780Z,13.95
2023-12-17T15:23:43.742Z,14.57
2023-12-17T15:26:10.679Z,13.80
2023-12-17T15:28:38.200Z,13.95
2023-12-17T15:31:05.477Z,14.43
2023-12-17T15:33:33.171Z,15.10
2023-12-17T15:36:00.654Z,16.27
2023-12-17T15:38:27.714Z,14.98
2023-12-17T15:43:21.415Z,19.90
2023-12-17T15:45:48.445Z,18.15
2023-12-17T15:48:15.422Z,17.13
2023-12-17T15:53:12.688Z,19.55
2023-12-17T15:55:39.497Z,21.33
2023-12-17T15:58:06.274Z,17.60
2023-12-17T16:03:02.098Z,17.65
2023-12-17T16:05:29.696Z,18.58
2023-12-17T16:07:57.882Z,21.77
2023-12-17T16:10:26.052Z,20.70
2023-12-17T16:12:53.368Z,20.13
2023-12-17T16:15:21.762Z,21.77
2023-12-17T16:17:48.771Z,19.63
2023-12-17T16:20:18.020Z,19.15
2023-12-17T16:22:47.074Z,20.05
2023-12-17T16:25:14.141Z,20.15
2023-12-17T16:27:41.114Z,20.88
2023-12-17T16:30:08.684Z,21.38
2023-12-17T16:32:39.560Z,22.02
2023-12-17T16:35:10.098Z,20.30
2023-12-17T16:37:42.763Z,19.85
2023-12-17T16:40:14.294Z,21.73
2023-12-17T16:42:42.733Z,23.20
2023-12-17T16:45:11.931Z,24.52
2023-12-17T16:47:39.050Z,22.65
2023-12-17T16:50:08.685Z,22.90
2023-12-17T16:52:37.950Z,26.48
2023-12-17T16:55:05.130Z,24.65
2023-12-17T16:59:59.374Z,28.17
2023-12-17T17:04:53.735Z,33.13
2023-12-17T17:07:20.706Z,28.17
2023-12-17T17:09:50.081Z,30.35
2023-12-17T17:12:17.511Z,34.45
2023-12-17T17:14:45.248Z,27.98
2023-12-17T17:17:12.128Z,41.60
2023-12-17T17:19:39.296Z,38.33
2023-12-17T17:22:08.636Z,38.15
2023-12-17T17:24:35.785Z,39.55
2023-12-17T17:27:05.739Z,34.58
2023-12-17T17:29:32.655Z,32.63
2023-12-17T17:34:26.998Z,32.50
2023-12-17T17:39:22.615Z,36.17
2023-12-17T17:41:51.594Z,32.30
2023-12-17T17:44:18.666Z,40.88
2023-12-17T17:46:46.701Z,29.20
2023-12-17T17:49:14.898Z,34.95
2023-12-17T17:51:42.801Z,33.50
2023-12-17T17:54:12.101Z,33.20
2023-12-17T17:56:39.519Z,33.30
2023-12-17T17:59:06.471Z,27.38
2023-12-17T18:01:36.787Z,31.75
2023-12-17T18:04:04.169Z,33.45
2023-12-17T18:06:33.610Z,29.75
2023-12-17T18:09:00.543Z,30.73
2023-12-17T18:11:27.527Z,35.22
2023-12-17T18:13:55.585Z,30.83
2023-12-17T18:16:23.362Z,33.13
2023-12-17T18:18:53.689Z,33.53
2023-12-17T18:21:23.346Z,31.17
2023-12-17T18:23:50.682Z,29.08
2023-12-17T18:28:48.067Z,37.92
2023-12-17T18:33:44.580Z,36.15
2023-12-17T18:36:11.723Z,31.23
2023-12-17T18:38:45.907Z,34.50
2023-12-17T18:41:14.030Z,39.85
2023-12-17T18:43:41.499Z,37.55
2023-12-17T18:46:15.877Z,31.15
2023-12-17T18:48:43.657Z,37.30
2023-12-17T18:51:11.000Z,30.48
2023-12-17T18:53:39.514Z,30.48
2023-12-17T18:56:06.853Z,42.72
2023-12-17T18:58:34.001Z,36.05
2023-12-17T19:01:01.049Z,29.80
2023-12-17T19:05:54.745Z,31.80
2023-12-17T19:08:21.748Z,31.48
2023-12-17T19:10:48.666Z,29.55
2023-12-17T19:13:16.288Z,30.00
2023-12-17T19:15:44.282Z,38.83
2023-12-17T19:18:11.889Z,31.80
2023-12-17T19:20:40.434Z,29.60
2023-12-17T19:23:08.032Z,28.77
2023-12-17T19:25:34.954Z,33.70
2023-12-17T19:28:01.860Z,27.90
2023-12-17T19:30:29.231Z,38.25
2023-12-17T19:32:56.961Z,28.70
2023-12-17T19:35:24.141Z,30.08
2023-12-17T19:40:17.952Z,32.25
2023-12-17T19:42:45.670Z,28.45
2023-12-17T19:45:14.635Z,37.95
2023-12-17T19:47:42.119Z,38.00
2023-12-17T19:50:09.150Z,30.42
2023-12-17T19:55:02.802Z,27.08
2023-12-17T19:57:29.729Z,27.50
2023-12-17T19:59:56.722Z,26.10
2023-12-17T20:04:50.423Z,28.58
2023-12-17T20:07:21.155Z,25.42
2023-12-17T20:09:48.309Z,24.00
2023-12-17T20:14:41.900Z,28.20
2023-12-17T20:17:08.703Z,27.70
2023-12-17T20:19:35.691Z,28.75
2023-12-17T20:24:29.713Z,26.90
2023-12-17T20:26:56.657Z,24.40
2023-12-17T20:29:23.457Z,23.52
2023-12-17T20:31:52.291Z,22.98
2023-12-17T20:34:21.982Z,24.73
2023-12-17T20:36:49.315Z,29.83
2023-12-17T20:39:16.163Z,23.60
2023-12-17T20:41:43.203Z,24.65
2023-12-17T20:46:36.836Z,23.25
2023-12-17T20:49:03.990Z,27.98
2023-12-17T20:53:57.901Z,27.63
2023-12-17T20:56:24.829Z,29.38
2023-12-17T20:58:53.271Z,29.33
2023-12-17T21:01:20.668Z,33.22
2023-12-17T21:03:47.908Z,24.92
2023-12-17T21:06:23.358Z,27.88
2023-12-17T21:08:50.317Z,25.38
2023-12-17T21:11:17.434Z,26.45
2023-12-17T21:13:45.710Z,25.80
2023-12-17T21:16:13.430Z,24.42
2023-12-17T21:18:40.672Z,26.33
2023-12-17T21:21:08.896Z,28.48
2023-12-17T21:23:35.944Z,28.45
2023-12-17T21:26:03.948Z,25.10
2023-12-17T21:28:31.062Z,29.75
2023-12-17T21:33:25.359Z,24.60
2023-12-17T21:35:52.521Z,27.85
2023-12-17T21:40:48.368Z,27.48
2023-12-17T21:43:15.216Z,30.85
2023-12-17T21:45:42.296Z,26.10
2023-12-17T21:48:09.585Z,22.63
2023-12-17T21:50:36.669Z,26.23
2023-12-17T21:53:03.887Z,25.42
2023-12-17T21:55:30.845Z,28.52
2023-12-17T21:57:57.954Z,23.08
2023-12-17T22:02:52.440Z,25.15
2023-12-17T22:07:47.816Z,25.33
2023-12-17T22:10:15.965Z,23.67
2023-12-17T22:12:46.026Z,23.05
2023-12-17T22:15:13.109Z,24.95
2023-12-17T22:20:07.960Z,24.60
2023-12-17T22:22:34.870Z,25.88
2023-12-17T22:25:02.360Z,31.65
2023-12-17T22:27:30.525Z,25.25
2023-12-17T22:30:00.895Z,25.05
2023-12-17T22:32:27.757Z,27.08
2023-12-17T22:34:54.816Z,26.58
2023-12-17T22:39:48.732Z,30.58
2023-12-17T22:42:15.636Z,27.80
2023-12-17T22:44:45.006Z,24.67
2023-12-17T22:47:11.939Z,26.52
2023-12-17T22:49:38.968Z,25.70
2023-12-17T22:54:36.320Z,21.55
2023-12-17T22:57:03.467Z,26.80
2023-12-17T23:01:57.345Z,31.35
2023-12-17T23:04:24.173Z,27.88
2023-12-17T23:06:51.029Z,29.17
2023-12-17T23:09:18.187Z,25.25
2023-12-17T23:14:11.888Z,23.08
2023-12-17T23:16:38.789Z,25.85
2023-12-17T23:19:05.803Z,22.98
2023-12-17T23:23:59.660Z,25.33
2023-12-17T23:28:53.576Z,24.40
2023-12-17T23:33:47.468Z,26.95
2023-12-17T23:38:41.483Z,25.75
2023-12-17T23:41:08.800Z,26.20
2023-12-17T23:43:40.180Z,27.10
2023-12-17T23:46:07.398Z,21.73
2023-12-17T23:48:34.506Z,23.38
2023-12-17T23:51:01.400Z,19.85
2023-12-17T23:53:28.415Z,17.40
2023-12-17T23:55:55.205Z,19.88
2023-12-17T23:58:22.054Z,21.95
